sensor_id;sensor_type;location;lat;lon;timestamp;temperature;humidity
17489;DHT22;8861;52.644;4.734;2023-06-14T00:01:08;19.40;99.90
17489;DHT22;8861;52.644;4.734;2023-06-14T00:03:35;19.30;99.90
17489;DHT22;8861;52.644;4.734;2023-06-14T00:06:02;19.30;99.90
17489;DHT22;8861;52.644;4.734;2023-06-14T00:08:28;19.30;99.90
17489;DHT22;8861;52.644;4.734;2023-06-14T00:10:57;19.20;99.90
17489;DHT22;8861;52.644;4.734;2023-06-14T00:13:24;19.20;99.90
17489;DHT22;8861;52.644;4.734;2023-06-14T00:15:50;19.20;99.90
17489;DHT22;8861;52.644;4.734;2023-06-14T00:18:20;19.10;99.90
17489;DHT22;8861;52.644;4.734;2023-06-14T00:20:50;19.10;99.90
17489;DHT22;8861;52.644;4.734;2023-06-14T00:23:17;19.10;99.90
17489;DHT22;8861;52.644;4.734;2023-06-14T00:25:44;19.00;99.90
17489;DHT22;8861;52.644;4.734;2023-06-14T00:28:13;19.00;99.90
17489;DHT22;8861;52.644;4.734;2023-06-14T00:30:40;19.00;99.90
17489;DHT22;8861;52.644;4.734;2023-06-14T00:33:09;19.00;99.90
17489;DHT22;8861;52.644;4.734;2023-06-14T00:35:36;19.00;99.90
17489;DHT22;8861;52.644;4.734;2023-06-14T00:38:03;18.90;99.90
17489;DHT22;8861;52.644;4.734;2023-06-14T00:40:30;18.90;99.90
17489;DHT22;8861;52.644;4.734;2023-06-14T00:42:57;18.90;99.90
17489;DHT22;8861;52.644;4.734;2023-06-14T00:45:25;18.90;99.90
17489;DHT22;8861;52.644;4.734;2023-06-14T00:47:53;18.80;99.90
17489;DHT22;8861;52.644;4.734;2023-06-14T00:50:21;18.80;99.90
17489;DHT22;8861;52.644;4.734;2023-06-14T00:52:49;18.80;99.90
17489;DHT22;8861;52.644;4.734;2023-06-14T00:55:16;18.70;99.90
17489;DHT22;8861;52.644;4.734;2023-06-14T00:57:44;18.70;99.90
17489;DHT22;8861;52.644;4.734;2023-06-14T01:00:12;18.70;99.90
17489;DHT22;8861;52.644;4.734;2023-06-14T01:02:41;18.70;99.90
17489;DHT22;8861;52.644;4.734;2023-06-14T01:05:08;18.70;99.90
17489;DHT22;8861;52.644;4.734;2023-06-14T01:07:46;18.60;99.90
17489;DHT22;8861;52.644;4.734;2023-06-14T01:10:27;18.60;99.90
17489;DHT22;8861;52.644;4.734;2023-06-14T01:13:03;18.60;99.90
17489;DHT22;8861;52.644;4.734;2023-06-14T01:15:31;18.60;99.90
17489;DHT22;8861;52.644;4.734;2023-06-14T01:18:00;18.60;99.90
17489;DHT22;8861;52.644;4.734;2023-06-14T01:20:31;18.50;99.90
17489;DHT22;8861;52.644;4.734;2023-06-14T01:22:59;18.50;99.90
17489;DHT22;8861;52.644;4.734;2023-06-14T01:25:27;18.50;99.90
17489;DHT22;8861;52.644;4.734;2023-06-14T01:27:56;18.50;99.90
17489;DHT22;8861;52.644;4.734;2023-06-14T01:30:23;18.40;99.90
17489;DHT22;8861;52.644;4.734;2023-06-14T01:32:52;18.40;99.90
17489;DHT22;8861;52.644;4.734;2023-06-14T01:35:20;18.40;99.90
17489;DHT22;8861;52.644;4.734;2023-06-14T01:37:48;18.40;99.90
17489;DHT22;8861;52.644;4.734;2023-06-14T01:40:17;18.30;99.90
17489;DHT22;8861;52.644;4.734;2023-06-14T01:42:46;18.30;99.90
17489;DHT22;8861;52.644;4.734;2023-06-14T01:45:14;18.30;99.90
17489;DHT22;8861;52.644;4.734;2023-06-14T01:47:42;18.30;99.90
17489;DHT22;8861;52.644;4.734;2023-06-14T01:50:10;18.20;99.90
17489;DHT22;8861;52.644;4.734;2023-06-14T01:52:37;18.20;99.90
17489;DHT22;8861;52.644;4.734;2023-06-14T01:55:05;18.20;99.90
17489;DHT22;8861;52.644;4.734;2023-06-14T01:57:35;18.20;99.90
17489;DHT22;8861;52.644;4.734;2023-06-14T02:00:02;18.10;99.90
17489;DHT22;8861;52.644;4.734;2023-06-14T02:02:29;18.10;99.90
17489;DHT22;8861;52.644;4.734;2023-06-14T02:04:56;18.10;99.90
17489;DHT22;8861;52.644;4.734;2023-06-14T02:07:23;18.00;99.90
17489;DHT22;8861;52.644;4.734;2023-06-14T02:09:51;18.00;99.90
17489;DHT22;8861;52.644;4.734;2023-06-14T02:12:18;18.00;99.90
17489;DHT22;8861;52.644;4.734;2023-06-14T02:14:46;18.00;99.90
17489;DHT22;8861;52.644;4.734;2023-06-14T02:17:14;18.00;99.90
17489;DHT22;8861;52.644;4.734;2023-06-14T02:19:41;17.90;99.90
17489;DHT22;8861;52.644;4.734;2023-06-14T02:22:09;17.90;99.90
17489;DHT22;8861;52.644;4.734;2023-06-14T02:24:35;17.90;99.90
17489;DHT22;8861;52.644;4.734;2023-06-14T02:27:03;17.80;99.90
17489;DHT22;8861;52.644;4.734;2023-06-14T02:29:30;17.80;99.90
17489;DHT22;8861;52.644;4.734;2023-06-14T02:31:58;17.70;99.90
17489;DHT22;8861;52.644;4.734;2023-06-14T02:34:25;17.70;99.90
17489;DHT22;8861;52.644;4.734;2023-06-14T02:36:52;17.70;99.90
17489;DHT22;8861;52.644;4.734;2023-06-14T02:39:19;17.70;99.90
17489;DHT22;8861;52.644;4.734;2023-06-14T02:41:48;17.60;99.90
17489;DHT22;8861;52.644;4.734;2023-06-14T02:44:17;17.60;99.90
17489;DHT22;8861;52.644;4.734;2023-06-14T02:46:44;17.60;99.90
17489;DHT22;8861;52.644;4.734;2023-06-14T02:49:13;17.60;99.90
17489;DHT22;8861;52.644;4.734;2023-06-14T02:51:40;17.60;99.90
17489;DHT22;8861;52.644;4.734;2023-06-14T02:54:07;17.50;99.90
17489;DHT22;8861;52.644;4.734;2023-06-14T02:56:34;17.50;99.90
17489;DHT22;8861;52.644;4.734;2023-06-14T02:59:01;17.40;99.90
17489;DHT22;8861;52.644;4.734;2023-06-14T03:01:28;17.40;99.90
17489;DHT22;8861;52.644;4.734;2023-06-14T03:04:00;17.40;99.90
17489;DHT22;8861;52.644;4.734;2023-06-14T03:06:30;17.40;99.90
17489;DHT22;8861;52.644;4.734;2023-06-14T03:08:57;17.30;99.90
17489;DHT22;8861;52.644;4.734;2023-06-14T03:11:26;17.30;99.90
17489;DHT22;8861;52.644;4.734;2023-06-14T03:13:53;17.20;99.90
17489;DHT22;8861;52.644;4.734;2023-06-14T03:16:20;17.30;99.90
17489;DHT22;8861;52.644;4.734;2023-06-14T03:18:50;17.20;99.90
17489;DHT22;8861;52.644;4.734;2023-06-14T03:21:17;17.20;99.90
17489;DHT22;8861;52.644;4.734;2023-06-14T03:23:45;17.20;99.90
17489;DHT22;8861;52.644;4.734;2023-06-14T03:26:12;17.20;99.90
17489;DHT22;8861;52.644;4.734;2023-06-14T03:28:40;17.10;99.90
17489;DHT22;8861;52.644;4.734;2023-06-14T03:31:07;17.10;99.90
17489;DHT22;8861;52.644;4.734;2023-06-14T03:33:34;17.10;99.90
17489;DHT22;8861;52.644;4.734;2023-06-14T03:36:02;17.10;99.90
17489;DHT22;8861;52.644;4.734;2023-06-14T03:38:30;17.00;99.90
17489;DHT22;8861;52.644;4.734;2023-06-14T03:40:58;17.00;99.90
17489;DHT22;8861;52.644;4.734;2023-06-14T03:43:25;17.00;99.90
17489;DHT22;8861;52.644;4.734;2023-06-14T03:45:52;17.00;99.90
17489;DHT22;8861;52.644;4.734;2023-06-14T03:48:19;17.00;99.90
17489;DHT22;8861;52.644;4.734;2023-06-14T03:50:46;17.00;99.90
17489;DHT22;8861;52.644;4.734;2023-06-14T03:53:13;17.00;99.90
17489;DHT22;8861;52.644;4.734;2023-06-14T03:55:40;17.00;99.90
17489;DHT22;8861;52.644;4.734;2023-06-14T03:58:08;17.00;99.90
17489;DHT22;8861;52.644;4.734;2023-06-14T04:00:36;17.00;99.90
17489;DHT22;8861;52.644;4.734;2023-06-14T04:03:03;17.00;99.90
17489;DHT22;8861;52.644;4.734;2023-06-14T04:05:31;16.90;99.90
17489;DHT22;8861;52.644;4.734;2023-06-14T04:07:58;17.00;99.90
17489;DHT22;8861;52.644;4.734;2023-06-14T04:10:26;16.90;99.90
17489;DHT22;8861;52.644;4.734;2023-06-14T04:12:53;16.90;99.90
17489;DHT22;8861;52.644;4.734;2023-06-14T04:15:21;16.90;99.90
17489;DHT22;8861;52.644;4.734;2023-06-14T04:17:48;16.90;99.90
17489;DHT22;8861;52.644;4.734;2023-06-14T04:20:16;16.90;99.90
17489;DHT22;8861;52.644;4.734;2023-06-14T04:22:43;17.00;99.90
17489;DHT22;8861;52.644;4.734;2023-06-14T04:25:10;17.00;99.90
17489;DHT22;8861;52.644;4.734;2023-06-14T04:27:37;17.00;99.90
17489;DHT22;8861;52.644;4.734;2023-06-14T04:30:05;17.00;99.90
17489;DHT22;8861;52.644;4.734;2023-06-14T04:32:34;17.00;99.90
17489;DHT22;8861;52.644;4.734;2023-06-14T04:35:04;17.10;99.90
17489;DHT22;8861;52.644;4.734;2023-06-14T04:37:32;17.10;99.90
17489;DHT22;8861;52.644;4.734;2023-06-14T04:39:58;17.10;99.90
17489;DHT22;8861;52.644;4.734;2023-06-14T04:42:26;17.20;99.90
17489;DHT22;8861;52.644;4.734;2023-06-14T04:44:57;17.20;99.90
17489;DHT22;8861;52.644;4.734;2023-06-14T04:47:24;17.20;99.90
17489;DHT22;8861;52.644;4.734;2023-06-14T04:49:56;17.30;99.90
17489;DHT22;8861;52.644;4.734;2023-06-14T04:52:26;17.30;99.90
17489;DHT22;8861;52.644;4.734;2023-06-14T04:54:55;17.40;99.90
17489;DHT22;8861;52.644;4.734;2023-06-14T04:57:22;17.40;99.90
17489;DHT22;8861;52.644;4.734;2023-06-14T04:59:51;17.50;99.90
17489;DHT22;8861;52.644;4.734;2023-06-14T05:02:21;17.50;99.90
17489;DHT22;8861;52.644;4.734;2023-06-14T05:04:49;17.50;99.90
17489;DHT22;8861;52.644;4.734;2023-06-14T05:07:17;17.50;99.90
17489;DHT22;8861;52.644;4.734;2023-06-14T05:09:45;17.60;99.90
17489;DHT22;8861;52.644;4.734;2023-06-14T05:12:12;17.60;99.90
17489;DHT22;8861;52.644;4.734;2023-06-14T05:14:40;17.70;99.90
17489;DHT22;8861;52.644;4.734;2023-06-14T05:17:07;17.70;99.90
17489;DHT22;8861;52.644;4.734;2023-06-14T05:19:35;17.70;99.90
17489;DHT22;8861;52.644;4.734;2023-06-14T05:22:02;17.80;99.90
17489;DHT22;8861;52.644;4.734;2023-06-14T05:24:30;17.80;99.90
17489;DHT22;8861;52.644;4.734;2023-06-14T05:26:57;17.80;99.90
17489;DHT22;8861;52.644;4.734;2023-06-14T05:29:24;17.80;99.90
17489;DHT22;8861;52.644;4.734;2023-06-14T05:31:53;17.90;99.90
17489;DHT22;8861;52.644;4.734;2023-06-14T05:34:20;17.90;99.90
17489;DHT22;8861;52.644;4.734;2023-06-14T05:36:46;17.90;99.90
17489;DHT22;8861;52.644;4.734;2023-06-14T05:39:13;18.00;99.90
17489;DHT22;8861;52.644;4.734;2023-06-14T05:41:42;18.00;99.90
17489;DHT22;8861;52.644;4.734;2023-06-14T05:44:09;18.10;99.90
17489;DHT22;8861;52.644;4.734;2023-06-14T05:46:35;18.10;99.90
17489;DHT22;8861;52.644;4.734;2023-06-14T05:49:05;18.10;99.90
17489;DHT22;8861;52.644;4.734;2023-06-14T05:51:32;18.20;99.90
17489;DHT22;8861;52.644;4.734;2023-06-14T05:53:59;18.20;99.90
17489;DHT22;8861;52.644;4.734;2023-06-14T05:56:26;18.20;99.90
17489;DHT22;8861;52.644;4.734;2023-06-14T05:58:54;18.30;99.90
17489;DHT22;8861;52.644;4.734;2023-06-14T06:01:21;18.30;99.90
17489;DHT22;8861;52.644;4.734;2023-06-14T06:03:48;18.40;99.90
17489;DHT22;8861;52.644;4.734;2023-06-14T06:06:15;18.40;99.90
17489;DHT22;8861;52.644;4.734;2023-06-14T06:08:43;18.40;99.90
17489;DHT22;8861;52.644;4.734;2023-06-14T06:11:10;18.50;99.90
17489;DHT22;8861;52.644;4.734;2023-06-14T06:13:37;18.50;99.90
17489;DHT22;8861;52.644;4.734;2023-06-14T06:16:06;18.60;99.90
17489;DHT22;8861;52.644;4.734;2023-06-14T06:18:33;18.60;99.90
17489;DHT22;8861;52.644;4.734;2023-06-14T06:21:00;18.70;99.90
17489;DHT22;8861;52.644;4.734;2023-06-14T06:23:28;18.70;99.90
17489;DHT22;8861;52.644;4.734;2023-06-14T06:25:55;18.70;99.90
17489;DHT22;8861;52.644;4.734;2023-06-14T06:28:22;18.80;99.90
17489;DHT22;8861;52.644;4.734;2023-06-14T06:30:49;18.90;99.90
17489;DHT22;8861;52.644;4.734;2023-06-14T06:33:17;18.90;99.90
17489;DHT22;8861;52.644;4.734;2023-06-14T06:35:45;19.00;99.90
17489;DHT22;8861;52.644;4.734;2023-06-14T06:38:12;19.00;99.90
17489;DHT22;8861;52.644;4.734;2023-06-14T06:40:39;19.10;99.90
17489;DHT22;8861;52.644;4.734;2023-06-14T06:43:06;19.10;99.90
17489;DHT22;8861;52.644;4.734;2023-06-14T06:45:32;19.20;99.90
17489;DHT22;8861;52.644;4.734;2023-06-14T06:47:59;19.20;99.90
17489;DHT22;8861;52.644;4.734;2023-06-14T06:50:28;19.30;99.90
17489;DHT22;8861;52.644;4.734;2023-06-14T06:52:54;19.30;99.90
17489;DHT22;8861;52.644;4.734;2023-06-14T06:55:21;19.30;99.90
17489;DHT22;8861;52.644;4.734;2023-06-14T06:57:48;19.40;99.90
17489;DHT22;8861;52.644;4.734;2023-06-14T07:00:18;19.40;99.90
17489;DHT22;8861;52.644;4.734;2023-06-14T07:02:45;19.50;99.90
17489;DHT22;8861;52.644;4.734;2023-06-14T07:05:12;19.50;99.90
17489;DHT22;8861;52.644;4.734;2023-06-14T07:07:40;19.60;99.90
17489;DHT22;8861;52.644;4.734;2023-06-14T07:10:07;19.60;99.90
17489;DHT22;8861;52.644;4.734;2023-06-14T07:12:34;19.60;99.90
17489;DHT22;8861;52.644;4.734;2023-06-14T07:15:05;19.70;99.90
17489;DHT22;8861;52.644;4.734;2023-06-14T07:17:33;19.70;99.90
17489;DHT22;8861;52.644;4.734;2023-06-14T07:20:02;19.80;99.90
17489;DHT22;8861;52.644;4.734;2023-06-14T07:22:39;19.80;99.90
17489;DHT22;8861;52.644;4.734;2023-06-14T07:25:08;19.90;99.90
17489;DHT22;8861;52.644;4.734;2023-06-14T07:27:37;19.90;99.90
17489;DHT22;8861;52.644;4.734;2023-06-14T07:30:06;19.90;99.90
17489;DHT22;8861;52.644;4.734;2023-06-14T07:32:33;20.00;99.90
17489;DHT22;8861;52.644;4.734;2023-06-14T07:35:00;20.00;99.90
17489;DHT22;8861;52.644;4.734;2023-06-14T07:37:28;20.00;99.90
17489;DHT22;8861;52.644;4.734;2023-06-14T07:39:56;20.10;99.90
17489;DHT22;8861;52.644;4.734;2023-06-14T07:42:23;20.20;99.90
17489;DHT22;8861;52.644;4.734;2023-06-14T07:44:50;20.20;99.90
17489;DHT22;8861;52.644;4.734;2023-06-14T07:47:17;20.30;99.90
17489;DHT22;8861;52.644;4.734;2023-06-14T07:49:44;20.30;99.90
17489;DHT22;8861;52.644;4.734;2023-06-14T07:52:11;20.40;99.90
17489;DHT22;8861;52.644;4.734;2023-06-14T07:54:39;20.40;99.90
17489;DHT22;8861;52.644;4.734;2023-06-14T07:57:08;20.50;99.90
17489;DHT22;8861;52.644;4.734;2023-06-14T07:59:35;20.50;99.90
17489;DHT22;8861;52.644;4.734;2023-06-14T08:02:02;20.60;99.90
17489;DHT22;8861;52.644;4.734;2023-06-14T08:04:29;20.70;99.90
17489;DHT22;8861;52.644;4.734;2023-06-14T08:06:56;20.70;99.90
17489;DHT22;8861;52.644;4.734;2023-06-14T08:09:23;20.70;99.90
17489;DHT22;8861;52.644;4.734;2023-06-14T08:11:50;20.80;99.90
17489;DHT22;8861;52.644;4.734;2023-06-14T08:14:19;20.80;99.90
17489;DHT22;8861;52.644;4.734;2023-06-14T08:16:46;20.90;99.90
17489;DHT22;8861;52.644;4.734;2023-06-14T08:19:13;21.00;99.90
17489;DHT22;8861;52.644;4.734;2023-06-14T08:21:42;21.00;99.90
17489;DHT22;8861;52.644;4.734;2023-06-14T08:24:10;21.10;99.90
17489;DHT22;8861;52.644;4.734;2023-06-14T08:26:38;21.20;99.90
17489;DHT22;8861;52.644;4.734;2023-06-14T08:29:05;21.20;99.90
17489;DHT22;8861;52.644;4.734;2023-06-14T08:31:33;21.30;99.90
17489;DHT22;8861;52.644;4.734;2023-06-14T08:34:01;21.30;99.90
17489;DHT22;8861;52.644;4.734;2023-06-14T08:36:27;21.30;99.90
17489;DHT22;8861;52.644;4.734;2023-06-14T08:38:54;21.40;99.90
17489;DHT22;8861;52.644;4.734;2023-06-14T08:41:22;21.40;99.90
17489;DHT22;8861;52.644;4.734;2023-06-14T08:43:50;21.50;99.90
17489;DHT22;8861;52.644;4.734;2023-06-14T08:46:18;21.50;99.90
17489;DHT22;8861;52.644;4.734;2023-06-14T08:48:49;21.60;99.90
17489;DHT22;8861;52.644;4.734;2023-06-14T08:51:18;21.60;99.90
17489;DHT22;8861;52.644;4.734;2023-06-14T08:53:51;21.60;99.90
17489;DHT22;8861;52.644;4.734;2023-06-14T08:56:19;21.60;99.90
17489;DHT22;8861;52.644;4.734;2023-06-14T08:58:47;21.60;99.90
17489;DHT22;8861;52.644;4.734;2023-06-14T09:01:15;21.70;99.90
17489;DHT22;8861;52.644;4.734;2023-06-14T09:03:43;21.70;99.90
17489;DHT22;8861;52.644;4.734;2023-06-14T09:06:11;21.80;99.90
17489;DHT22;8861;52.644;4.734;2023-06-14T09:08:41;21.80;99.90
17489;DHT22;8861;52.644;4.734;2023-06-14T09:11:10;21.90;99.90
17489;DHT22;8861;52.644;4.734;2023-06-14T09:13:37;22.00;99.90
17489;DHT22;8861;52.644;4.734;2023-06-14T09:16:05;22.10;99.90
17489;DHT22;8861;52.644;4.734;2023-06-14T09:18:36;22.10;99.90
17489;DHT22;8861;52.644;4.734;2023-06-14T09:21:06;22.20;99.90
17489;DHT22;8861;52.644;4.734;2023-06-14T09:23:36;22.20;99.90
17489;DHT22;8861;52.644;4.734;2023-06-14T09:26:07;22.30;99.90
17489;DHT22;8861;52.644;4.734;2023-06-14T09:28:35;22.30;99.90
17489;DHT22;8861;52.644;4.734;2023-06-14T09:31:02;22.30;99.90
17489;DHT22;8861;52.644;4.734;2023-06-14T09:33:30;22.40;99.90
17489;DHT22;8861;52.644;4.734;2023-06-14T09:35:58;22.50;99.90
17489;DHT22;8861;52.644;4.734;2023-06-14T09:38:25;22.60;99.90
17489;DHT22;8861;52.644;4.734;2023-06-14T09:40:56;22.60;99.90
17489;DHT22;8861;52.644;4.734;2023-06-14T09:43:23;22.70;99.90
17489;DHT22;8861;52.644;4.734;2023-06-14T09:45:51;22.70;99.90
17489;DHT22;8861;52.644;4.734;2023-06-14T09:48:18;22.80;99.90
17489;DHT22;8861;52.644;4.734;2023-06-14T09:50:46;22.90;99.90
17489;DHT22;8861;52.644;4.734;2023-06-14T09:53:14;23.00;99.90
17489;DHT22;8861;52.644;4.734;2023-06-14T09:55:43;23.10;99.90
17489;DHT22;8861;52.644;4.734;2023-06-14T09:58:14;23.20;99.90
17489;DHT22;8861;52.644;4.734;2023-06-14T10:00:43;23.20;99.90
17489;DHT22;8861;52.644;4.734;2023-06-14T10:03:13;23.30;99.90
17489;DHT22;8861;52.644;4.734;2023-06-14T10:05:43;23.40;99.90
17489;DHT22;8861;52.644;4.734;2023-06-14T10:08:13;23.40;99.90
17489;DHT22;8861;52.644;4.734;2023-06-14T10:10:43;23.50;99.90
17489;DHT22;8861;52.644;4.734;2023-06-14T10:13:11;23.60;99.90
17489;DHT22;8861;52.644;4.734;2023-06-14T10:15:45;23.70;99.90
17489;DHT22;8861;52.644;4.734;2023-06-14T10:18:19;23.80;99.90
17489;DHT22;8861;52.644;4.734;2023-06-14T10:20:55;23.70;99.90
17489;DHT22;8861;52.644;4.734;2023-06-14T10:23:25;23.80;99.90
17489;DHT22;8861;52.644;4.734;2023-06-14T10:25:55;23.80;99.90
17489;DHT22;8861;52.644;4.734;2023-06-14T10:28:24;23.90;99.90
17489;DHT22;8861;52.644;4.734;2023-06-14T10:31:07;23.90;99.90
17489;DHT22;8861;52.644;4.734;2023-06-14T10:33:35;23.90;99.90
17489;DHT22;8861;52.644;4.734;2023-06-14T10:36:26;24.00;99.90
17489;DHT22;8861;52.644;4.734;2023-06-14T10:39:00;24.00;99.90
17489;DHT22;8861;52.644;4.734;2023-06-14T10:41:28;24.00;99.90
17489;DHT22;8861;52.644;4.734;2023-06-14T10:47:24;24.10;99.90
17489;DHT22;8861;52.644;4.734;2023-06-14T10:49:53;24.20;99.90
17489;DHT22;8861;52.644;4.734;2023-06-14T10:52:25;24.30;99.90
17489;DHT22;8861;52.644;4.734;2023-06-14T10:55:06;24.40;99.90
17489;DHT22;8861;52.644;4.734;2023-06-14T10:57:37;24.50;99.90
17489;DHT22;8861;52.644;4.734;2023-06-14T11:00:06;24.60;99.90
17489;DHT22;8861;52.644;4.734;2023-06-14T11:05:43;24.80;99.90
17489;DHT22;8861;52.644;4.734;2023-06-14T11:11:13;24.90;99.90
17489;DHT22;8861;52.644;4.734;2023-06-14T11:13:44;25.00;99.90
17489;DHT22;8861;52.644;4.734;2023-06-14T11:16:11;25.10;99.90
17489;DHT22;8861;52.644;4.734;2023-06-14T11:18:40;25.20;99.90
17489;DHT22;8861;52.644;4.734;2023-06-14T11:21:07;25.40;99.90
17489;DHT22;8861;52.644;4.734;2023-06-14T11:23:35;25.50;99.90
17489;DHT22;8861;52.644;4.734;2023-06-14T11:26:02;25.60;99.90
17489;DHT22;8861;52.644;4.734;2023-06-14T11:28:37;25.70;99.90
17489;DHT22;8861;52.644;4.734;2023-06-14T11:31:04;25.80;99.90
17489;DHT22;8861;52.644;4.734;2023-06-14T11:33:31;25.90;99.90
17489;DHT22;8861;52.644;4.734;2023-06-14T11:36:02;25.90;99.90
17489;DHT22;8861;52.644;4.734;2023-06-14T11:38:28;26.00;99.50
17489;DHT22;8861;52.644;4.734;2023-06-14T11:40:58;26.00;99.60
17489;DHT22;8861;52.644;4.734;2023-06-14T11:43:26;26.10;98.80
17489;DHT22;8861;52.644;4.734;2023-06-14T11:45:53;26.10;98.80
17489;DHT22;8861;52.644;4.734;2023-06-14T11:48:20;26.10;97.90
17489;DHT22;8861;52.644;4.734;2023-06-14T11:50:50;26.10;97.40
17489;DHT22;8861;52.644;4.734;2023-06-14T11:53:18;26.20;97.30
17489;DHT22;8861;52.644;4.734;2023-06-14T11:55:45;26.30;97.10
17489;DHT22;8861;52.644;4.734;2023-06-14T11:58:13;26.30;97.10
17489;DHT22;8861;52.644;4.734;2023-06-14T12:00:41;26.40;97.10
17489;DHT22;8861;52.644;4.734;2023-06-14T12:03:08;26.40;97.10
17489;DHT22;8861;52.644;4.734;2023-06-14T12:05:36;26.50;97.00
17489;DHT22;8861;52.644;4.734;2023-06-14T12:08:03;26.50;96.70
17489;DHT22;8861;52.644;4.734;2023-06-14T12:10:40;26.70;96.60
17489;DHT22;8861;52.644;4.734;2023-06-14T12:13:09;27.20;96.30
17489;DHT22;8861;52.644;4.734;2023-06-14T12:15:36;28.10;96.40
17489;DHT22;8861;52.644;4.734;2023-06-14T12:18:05;29.20;95.50
17489;DHT22;8861;52.644;4.734;2023-06-14T12:20:34;30.50;94.30
17489;DHT22;8861;52.644;4.734;2023-06-14T12:23:03;31.70;92.40
17489;DHT22;8861;52.644;4.734;2023-06-14T12:25:31;32.60;91.80
17489;DHT22;8861;52.644;4.734;2023-06-14T12:28:04;33.40;90.00
17489;DHT22;8861;52.644;4.734;2023-06-14T12:30:31;33.90;88.70
17489;DHT22;8861;52.644;4.734;2023-06-14T12:32:58;34.50;85.30
17489;DHT22;8861;52.644;4.734;2023-06-14T12:35:26;34.80;81.80
17489;DHT22;8861;52.644;4.734;2023-06-14T12:37:53;34.90;79.40
17489;DHT22;8861;52.644;4.734;2023-06-14T12:40:20;34.80;79.70
17489;DHT22;8861;52.644;4.734;2023-06-14T12:42:46;35.00;79.10
17489;DHT22;8861;52.644;4.734;2023-06-14T12:45:15;35.30;78.80
17489;DHT22;8861;52.644;4.734;2023-06-14T12:47:42;35.60;78.30
17489;DHT22;8861;52.644;4.734;2023-06-14T12:50:09;35.40;76.80
17489;DHT22;8861;52.644;4.734;2023-06-14T12:52:36;34.60;77.50
17489;DHT22;8861;52.644;4.734;2023-06-14T12:55:04;33.50;77.90
17489;DHT22;8861;52.644;4.734;2023-06-14T12:57:32;32.20;78.70
17489;DHT22;8861;52.644;4.734;2023-06-14T13:00:02;31.10;81.50
17489;DHT22;8861;52.644;4.734;2023-06-14T13:02:32;30.30;84.60
17489;DHT22;8861;52.644;4.734;2023-06-14T13:04:59;29.60;87.00
17489;DHT22;8861;52.644;4.734;2023-06-14T13:07:29;29.30;88.30
17489;DHT22;8861;52.644;4.734;2023-06-14T13:09:56;28.90;88.90
17489;DHT22;8861;52.644;4.734;2023-06-14T13:12:23;28.60;89.60
17489;DHT22;8861;52.644;4.734;2023-06-14T13:14:50;28.40;90.00
17489;DHT22;8861;52.644;4.734;2023-06-14T13:17:16;28.20;90.20
17489;DHT22;8861;52.644;4.734;2023-06-14T13:19:45;28.00;90.80
17489;DHT22;8861;52.644;4.734;2023-06-14T13:22:12;27.90;91.00
17489;DHT22;8861;52.644;4.734;2023-06-14T13:24:39;27.80;90.90
17489;DHT22;8861;52.644;4.734;2023-06-14T13:27:06;27.90;91.00
17489;DHT22;8861;52.644;4.734;2023-06-14T13:29:33;28.10;91.20
17489;DHT22;8861;52.644;4.734;2023-06-14T13:32:01;28.20;91.00
17489;DHT22;8861;52.644;4.734;2023-06-14T13:34:28;28.30;90.80
17489;DHT22;8861;52.644;4.734;2023-06-14T13:36:56;28.30;90.60
17489;DHT22;8861;52.644;4.734;2023-06-14T13:39:24;28.30;90.90
17489;DHT22;8861;52.644;4.734;2023-06-14T13:41:51;28.20;91.00
17489;DHT22;8861;52.644;4.734;2023-06-14T13:44:18;28.20;91.00
17489;DHT22;8861;52.644;4.734;2023-06-14T13:46:46;28.20;91.20
17489;DHT22;8861;52.644;4.734;2023-06-14T13:49:13;28.30;91.40
17489;DHT22;8861;52.644;4.734;2023-06-14T13:51:43;28.30;91.10
17489;DHT22;8861;52.644;4.734;2023-06-14T13:54:13;28.30;91.00
17489;DHT22;8861;52.644;4.734;2023-06-14T13:56:40;28.50;90.90
17489;DHT22;8861;52.644;4.734;2023-06-14T13:59:07;28.80;91.00
17489;DHT22;8861;52.644;4.734;2023-06-14T14:01:35;29.00;90.70
17489;DHT22;8861;52.644;4.734;2023-06-14T14:04:02;29.20;90.40
17489;DHT22;8861;52.644;4.734;2023-06-14T14:06:28;29.70;90.60
17489;DHT22;8861;52.644;4.734;2023-06-14T14:08:55;30.70;89.70
17489;DHT22;8861;52.644;4.734;2023-06-14T14:11:24;32.10;87.30
17489;DHT22;8861;52.644;4.734;2023-06-14T14:13:51;33.80;83.20
17489;DHT22;8861;52.644;4.734;2023-06-14T14:16:18;35.50;80.00
17489;DHT22;8861;52.644;4.734;2023-06-14T14:18:45;36.90;75.50
17489;DHT22;8861;52.644;4.734;2023-06-14T14:21:12;38.00;72.80
17489;DHT22;8861;52.644;4.734;2023-06-14T14:23:39;38.60;70.00
17489;DHT22;8861;52.644;4.734;2023-06-14T14:26:08;38.80;68.50
17489;DHT22;8861;52.644;4.734;2023-06-14T14:28:36;38.30;68.50
17489;DHT22;8861;52.644;4.734;2023-06-14T14:31:03;37.50;70.00
17489;DHT22;8861;52.644;4.734;2023-06-14T14:33:30;36.70;70.30
17489;DHT22;8861;52.644;4.734;2023-06-14T14:35:57;36.40;71.40
17489;DHT22;8861;52.644;4.734;2023-06-14T14:38:29;36.80;69.70
17489;DHT22;8861;52.644;4.734;2023-06-14T14:40:56;37.60;67.00
17489;DHT22;8861;52.644;4.734;2023-06-14T14:43:23;38.60;65.80
17489;DHT22;8861;52.644;4.734;2023-06-14T14:45:51;39.70;64.60
17489;DHT22;8861;52.644;4.734;2023-06-14T14:48:18;40.50;62.90
17489;DHT22;8861;52.644;4.734;2023-06-14T14:50:45;41.20;61.40
17489;DHT22;8861;52.644;4.734;2023-06-14T14:53:12;41.80;60.00
17489;DHT22;8861;52.644;4.734;2023-06-14T14:55:42;42.00;59.10
17489;DHT22;8861;52.644;4.734;2023-06-14T14:58:09;42.00;58.10
17489;DHT22;8861;52.644;4.734;2023-06-14T15:00:36;41.80;57.40
17489;DHT22;8861;52.644;4.734;2023-06-14T15:03:04;41.60;57.30
17489;DHT22;8861;52.644;4.734;2023-06-14T15:05:31;41.20;57.40
17489;DHT22;8861;52.644;4.734;2023-06-14T15:07:58;40.80;56.70
17489;DHT22;8861;52.644;4.734;2023-06-14T15:10:25;40.30;56.90
17489;DHT22;8861;52.644;4.734;2023-06-14T15:12:52;39.70;57.40
17489;DHT22;8861;52.644;4.734;2023-06-14T15:15:19;38.80;58.10
17489;DHT22;8861;52.644;4.734;2023-06-14T15:17:46;37.80;59.00
17489;DHT22;8861;52.644;4.734;2023-06-14T15:20:15;36.90;60.20
17489;DHT22;8861;52.644;4.734;2023-06-14T15:22:42;36.10;61.90
17489;DHT22;8861;52.644;4.734;2023-06-14T15:25:09;35.30;63.30
17489;DHT22;8861;52.644;4.734;2023-06-14T15:27:36;34.60;64.20
17489;DHT22;8861;52.644;4.734;2023-06-14T15:30:03;34.00;65.00
17489;DHT22;8861;52.644;4.734;2023-06-14T15:32:31;33.50;65.80
17489;DHT22;8861;52.644;4.734;2023-06-14T15:34:58;33.10;67.10
17489;DHT22;8861;52.644;4.734;2023-06-14T15:37:26;32.70;67.80
17489;DHT22;8861;52.644;4.734;2023-06-14T15:39:53;32.30;68.70
17489;DHT22;8861;52.644;4.734;2023-06-14T15:42:20;31.90;68.00
17489;DHT22;8861;52.644;4.734;2023-06-14T15:44:47;31.60;69.80
17489;DHT22;8861;52.644;4.734;2023-06-14T15:47:14;31.30;69.50
17489;DHT22;8861;52.644;4.734;2023-06-14T15:49:41;31.00;70.60
17489;DHT22;8861;52.644;4.734;2023-06-14T15:52:08;30.80;71.90
17489;DHT22;8861;52.644;4.734;2023-06-14T15:54:36;30.60;73.10
17489;DHT22;8861;52.644;4.734;2023-06-14T15:57:03;30.50;73.40
17489;DHT22;8861;52.644;4.734;2023-06-14T15:59:31;30.50;74.40